Accueil
METAR-TAF:

METAR-TAF

Aéroports :

Aérodrome de Granges

Granges, Suisse

latitude: 47-10-53N, longitude: 007-24-59E, altitude: 430 m

Observation

Le bulletin a été fait il y a 38 minutes, à 05:20 UTC
Vent 1 kt de sud-ouest
Température 4°C
Humidité 93%
Pression 1024 hPa
Visibilité: 5000 m

METAR: LSZG 040520Z AUTO 22001KT 5000 NSC 04/03 Q1024

Heure: 06:58 (05:58 UTC)

Prévision

Le bulletin a été fait il y a 33 minutes, à 05:25 UTC
Prévision valable du 04 à 06 UTC au 04 à 15 UTC
Vent 2 kt de direction variable
Visibilité: 6000 m
Evoluant progressivement
du 04 à 07 UTC au 04 à 09 UTC
Visibilité 10 km ou plus
pas de nuages en-dessous de 1500 mètres et pas de cumulonimbus.
Evoluant progressivement
du 04 à 10 UTC au 04 à 12 UTC
Visibilité 10 km ou plus
Nuages fragmentés à une hauteur de 5000 ft

TAF: LSZG 040525Z 0406/0415 VRB02KT 6000 NSC BECMG 0407/0409 CAVOK BECMG 0410/0412 9999 BKN050

Observations et prévisions météorologiques de plus de 4000 aéroports (messages METAR et TAF).

Les stations disponibles sont représentées par des disques jaunes et rouges sur la carte.

Passer la souris dessus pour voir le nom de la station.

Cliquer dessus pour voir les observations et prévisions météorologiques.

Pour changer de carte: cliquez sur les boutons verts avec une croix noire pour zoomer, sur le bouton vert avec un tiret pour effectuer un zoom arrière, ou sur les flèches vertes pour les cartes adjacentes.


METAR-TAF: